Time;durP1;ratioP1;P1;durP2;ratioP2;P2;SDS_P1;SDS_P2;PMS_P1;PMS_P2;Temp;Humidity;BMP_temperature;BMP_pressure;BME280_temperature;BME280_humidity;BME280_pressure;Samples;Min_cycle;Max_cycle;Signal;HPM_P1;HPM_P2
2021/01/10 00:00:17;;;;;;;15.87;14.13;;;;;;;-0.91;94.45;101283.97;5050876;28;20217;-75
2021/01/10 00:02:43;;;;;;;18.57;16.00;;;;;;;-0.86;94.00;101276.13;5050730;28;20171;-76
2021/01/10 00:05:10;;;;;;;18.93;16.47;;;;;;;-0.87;94.42;101282.50;5050582;28;20429;-75
2021/01/10 00:07:36;;;;;;;17.63;15.83;;;;;;;-0.95;93.67;101278.22;5049988;28;20168;-75
2021/01/10 00:10:09;;;;;;;23.13;17.43;;;;;;;-0.89;93.43;101273.84;5050421;28;20413;-76
2021/01/10 00:12:36;;;;;;;19.93;16.90;;;;;;;-0.87;93.52;101276.31;5050650;28;20175;-76
2021/01/10 00:15:02;;;;;;;20.07;18.03;;;;;;;-0.79;93.60;101281.44;5050387;28;21010;-76
2021/01/10 00:17:27;;;;;;;21.57;17.87;;;;;;;-0.81;93.24;101276.28;5050205;28;20998;-75
2021/01/10 00:19:52;;;;;;;24.97;16.13;;;;;;;-0.74;93.11;101279.75;5050459;28;20441;-76
2021/01/10 00:22:19;;;;;;;21.73;18.10;;;;;;;-0.68;93.32;101268.16;5050593;28;20179;-76
2021/01/10 00:24:45;;;;;;;19.70;17.60;;;;;;;-0.62;92.73;101271.84;5050570;28;20282;-77
2021/01/10 00:27:13;;;;;;;23.60;18.53;;;;;;;-0.60;92.80;101272.44;5051093;28;20532;-77
2021/01/10 00:29:41;;;;;;;23.97;17.63;;;;;;;-0.64;92.55;101280.09;5051514;28;20180;-76
2021/01/10 00:32:07;;;;;;;22.93;18.67;;;;;;;-0.67;92.11;101277.84;5050322;28;20453;-77
2021/01/10 00:34:32;;;;;;;22.70;18.53;;;;;;;-0.65;92.54;101278.47;5049189;28;20493;-77
2021/01/10 00:36:58;;;;;;;19.30;17.30;;;;;;;-0.66;92.23;101279.50;5048856;28;20653;-77
2021/01/10 00:39:23;;;;;;;17.63;15.87;;;;;;;-0.73;91.97;101281.38;5050273;28;20171;-77
2021/01/10 00:41:49;;;;;;;19.23;16.23;;;;;;;-0.83;92.87;101281.06;5050835;28;20214;-77
2021/01/10 00:44:14;;;;;;;18.63;15.63;;;;;;;-0.97;92.53;101274.13;5050190;28;20171;-77
2021/01/10 00:46:40;;;;;;;18.30;16.50;;;;;;;-1.01;93.06;101280.97;5049052;28;20171;-77
2021/01/10 00:49:05;;;;;;;17.97;15.87;;;;;;;-1.11;93.33;101273.38;5050534;28;20172;-77
2021/01/10 00:51:31;;;;;;;18.43;16.53;;;;;;;-1.09;93.37;101278.50;5050048;28;20658;-77
2021/01/10 00:53:56;;;;;;;19.07;15.90;;;;;;;-1.10;93.55;101277.69;5049931;28;20671;-76
2021/01/10 00:56:22;;;;;;;17.97;16.23;;;;;;;-1.12;93.25;101276.25;5049659;28;20523;-76
2021/01/10 00:58:47;;;;;;;18.40;16.20;;;;;;;-1.15;93.28;101274.84;5050125;28;20250;-76
2021/01/10 01:01:12;;;;;;;20.10;18.00;;;;;;;-1.09;93.42;101278.50;5050134;28;20585;-77
2021/01/10 01:03:38;;;;;;;20.10;18.10;;;;;;;-1.04;93.55;101282.19;5049965;28;20179;-77
2021/01/10 01:06:04;;;;;;;18.53;16.83;;;;;;;-1.05;93.90;101283.22;5049845;28;20798;-77
2021/01/10 01:08:30;;;;;;;20.10;17.23;;;;;;;-1.00;94.04;101280.75;5049793;28;20156;-76
2021/01/10 01:10:55;;;;;;;20.33;16.83;;;;;;;-0.88;94.17;101274.69;5048467;28;20418;-75
2021/01/10 01:13:20;;;;;;;24.50;17.30;;;;;;;-0.87;94.49;101279.81;5050000;28;20186;-76
2021/01/10 01:15:50;;;;;;;17.50;15.73;;;;;;;-0.88;93.59;101280.88;5049967;28;20639;-77
2021/01/10 01:18:18;;;;;;;20.60;17.13;;;;;;;-0.93;93.88;101286.88;5049223;28;20183;-77
2021/01/10 01:20:44;;;;;;;18.70;16.20;;;;;;;-0.97;94.05;101288.34;5049650;28;20429;-77
2021/01/10 01:23:09;;;;;;;18.20;16.23;;;;;;;-0.98;94.18;101284.03;5049541;28;20425;-77
2021/01/10 01:25:35;;;;;;;21.17;15.73;;;;;;;-0.98;94.17;101294.75;5049815;28;20418;-75
2021/01/10 01:28:00;;;;;;;19.97;17.30;;;;;;;-0.84;94.26;101290.16;5049254;28;20270;-76
2021/01/10 01:30:25;;;;;;;18.97;14.93;;;;;;;-0.80;93.91;101294.03;5049718;28;20214;-77
2021/01/10 01:32:50;;;;;;;23.43;13.23;;;;;;;-0.78;93.95;101305.38;5049524;28;20567;-77
2021/01/10 01:35:16;;;;;;;22.23;16.17;;;;;;;-0.77;93.76;101298.97;5049478;28;20242;-75
2021/01/10 01:37:41;;;;;;;18.07;15.63;;;;;;;-0.76;93.07;101294.41;5049354;28;20179;-76
2021/01/10 01:40:08;;;;;;;23.10;18.50;;;;;;;-0.74;93.42;101295.84;5048200;28;20583;-77
2021/01/10 01:42:34;;;;;;;23.07;15.37;;;;;;;-0.73;93.23;101302.84;5049475;28;20197;-76
2021/01/10 01:45:00;;;;;;;11.80;10.43;;;;;;;-0.71;93.27;101295.44;5049400;28;20898;-76
2021/01/10 01:47:27;;;;;;;27.10;19.57;;;;;;;-0.67;93.17;101302.00;5048889;28;20262;-76
2021/01/10 01:49:52;;;;;;;26.60;20.20;;;;;;;-0.66;93.18;101295.59;5049463;28;20453;-77
2021/01/10 01:52:18;;;;;;;21.40;19.07;;;;;;;-0.62;93.05;101298.66;5049295;28;20520;-77
2021/01/10 01:54:43;;;;;;;19.87;15.87;;;;;;;-0.60;93.36;101302.78;5049327;28;20260;-77
2021/01/10 01:57:09;;;;;;;19.67;16.43;;;;;;;-0.57;92.47;101298.03;5048770;28;20214;-76
2021/01/10 01:59:34;;;;;;;18.87;16.87;;;;;;;-0.55;93.08;101306.69;5050857;28;20177;-77
2021/01/10 02:01:59;;;;;;;24.97;19.90;;;;;;;-0.53;92.93;101309.97;5052931;28;20442;-76
2021/01/10 02:04:34;;;;;;;33.63;20.63;;;;;;;-0.53;92.96;101305.44;5052902;28;20171;-76
2021/01/10 02:07:21;;;;;;;27.33;19.73;;;;;;;-0.53;93.01;101309.97;5052199;28;20238;-76
2021/01/10 02:09:52;;;;;;;25.00;16.67;;;;;;;-0.52;92.75;101307.06;5052814;28;20449;-77
2021/01/10 02:12:20;;;;;;;26.77;18.10;;;;;;;-0.49;92.30;101305.81;5052736;28;20766;-77
2021/01/10 02:15:03;;;;;;;28.40;21.23;;;;;;;-0.49;92.78;101300.44;5053047;28;20863;-76
2021/01/10 02:17:29;;;;;;;27.33;20.23;;;;;;;-0.46;92.88;101306.19;5051952;28;20559;-77
2021/01/10 02:20:06;;;;;;;25.83;20.80;;;;;;;-0.42;92.20;101314.66;5052615;28;20449;-76
2021/01/10 02:22:35;;;;;;;25.73;19.70;;;;;;;-0.37;92.60;101317.50;5052595;28;20417;-76
2021/01/10 02:25:02;;;;;;;23.60;19.63;;;;;;;-0.38;92.12;101313.16;5052421;28;20417;-77
2021/01/10 02:27:28;;;;;;;24.93;18.53;;;;;;;-0.38;91.78;101314.00;5051581;28;20433;-76
2021/01/10 02:29:53;;;;;;;28.87;21.83;;;;;;;-0.33;92.38;101318.69;5051455;28;20440;-77
2021/01/10 02:32:21;;;;;;;26.97;20.30;;;;;;;-0.26;92.46;101318.66;5052208;28;20167;-76
2021/01/10 02:34:48;;;;;;;24.17;19.03;;;;;;;-0.26;92.00;101308.75;5052455;28;20543;-76
2021/01/10 02:37:45;;;;;;;21.00;18.17;;;;;;;-0.24;92.18;101311.22;5051518;28;20909;-77
2021/01/10 02:40:14;;;;;;;22.73;17.77;;;;;;;-0.31;91.91;101311.25;5052185;28;20848;-76
2021/01/10 02:42:48;;;;;;;24.57;19.73;;;;;;;-0.33;91.63;101308.78;5052042;28;20939;-76
2021/01/10 02:45:20;;;;;;;23.70;19.27;;;;;;;-0.33;91.83;101305.28;5052296;28;20425;-76
2021/01/10 02:47:49;;;;;;;21.87;19.33;;;;;;;-0.36;92.65;101303.03;5051675;28;20413;-76
2021/01/10 02:50:19;;;;;;;23.50;18.97;;;;;;;-0.39;91.96;101301.63;5051946;28;20421;-77
2021/01/10 02:52:47;;;;;;;26.63;20.47;;;;;;;-0.37;92.49;101298.72;5051883;28;21521;-76
2021/01/10 02:55:13;;;;;;;26.57;19.50;;;;;;;-0.34;92.54;101293.72;5051870;28;20952;-77
2021/01/10 02:57:39;;;;;;;21.33;18.87;;;;;;;-0.26;92.65;101289.94;5049988;28;20426;-77
2021/01/10 03:00:07;;;;;;;24.70;19.17;;;;;;;-0.25;92.25;101283.53;5051962;28;20183;-77
2021/01/10 03:02:33;;;;;;;21.67;18.40;;;;;;;-0.18;92.65;101280.78;5051781;28;20834;-77
2021/01/10 03:05:00;;;;;;;21.83;18.03;;;;;;;-0.14;92.37;101282.84;5050181;28;20951;-74
2021/01/10 03:07:26;;;;;;;20.47;18.27;;;;;;;-0.07;92.29;101283.56;5051180;28;20422;-77
2021/01/10 03:09:52;;;;;;;20.67;18.27;;;;;;;-0.09;92.52;101274.94;5051364;28;20489;-74
2021/01/10 03:12:27;;;;;;;20.87;18.63;;;;;;;-0.01;92.77;101277.31;5051900;28;20426;-75
2021/01/10 03:14:57;;;;;;;19.80;17.70;;;;;;;0.14;93.11;101276.16;5051502;28;20225;-75
2021/01/10 03:17:41;;;;;;;20.60;17.23;;;;;;;0.23;92.70;101272.97;5050912;28;20417;-76
2021/01/10 03:20:12;;;;;;;19.30;17.30;;;;;;;0.25;92.10;101278.09;5051400;28;20508;-75
2021/01/10 03:22:38;;;;;;;19.13;17.20;;;;;;;0.22;91.70;101275.88;5051331;28;20422;-75
2021/01/10 03:25:06;;;;;;;20.17;17.97;;;;;;;0.07;91.26;101280.78;5051234;28;20429;-75
2021/01/10 03:27:35;;;;;;;23.10;17.50;;;;;;;-0.03;91.61;101283.94;5050726;28;20214;-75
2021/01/10 03:30:02;;;;;;;23.73;18.60;;;;;;;-0.10;91.77;101278.66;5051134;28;20800;-75
2021/01/10 03:32:28;;;;;;;21.73;19.33;;;;;;;-0.31;92.87;101282.53;5051049;28;20422;-75
2021/01/10 03:34:53;;;;;;;26.90;20.23;;;;;;;-0.11;92.42;101279.69;5051015;28;20731;-75
2021/01/10 03:37:18;;;;;;;26.43;18.97;;;;;;;-0.03;92.30;101283.94;5050472;28;20183;-75
2021/01/10 03:39:44;;;;;;;23.93;18.87;;;;;;;-0.02;92.20;101282.91;5050983;28;20211;-75
2021/01/10 03:42:09;;;;;;;20.53;17.33;;;;;;;-0.02;92.82;101274.84;5050961;28;20185;-75
2021/01/10 03:44:34;;;;;;;22.17;18.03;;;;;;;-0.02;92.68;101274.84;5050564;28;20677;-75
2021/01/10 03:47:00;;;;;;;20.50;17.50;;;;;;;-0.08;92.55;101276.56;5049198;28;20180;-75
2021/01/10 03:49:26;;;;;;;25.07;19.13;;;;;;;-0.14;92.79;101272.09;5050345;28;20352;-75
2021/01/10 03:51:51;;;;;;;24.87;17.90;;;;;;;-0.18;92.65;101270.88;5050767;28;20545;-75
2021/01/10 03:54:17;;;;;;;20.93;17.87;;;;;;;-0.22;92.98;101263.47;5050703;28;20252;-75
2021/01/10 03:56:42;;;;;;;25.80;19.00;;;;;;;-0.23;92.79;101259.16;5050548;28;20225;-75
2021/01/10 03:59:07;;;;;;;33.60;20.63;;;;;;;-0.23;93.09;101262.66;5050567;28;20254;-75
2021/01/10 04:01:32;;;;;;;26.00;19.10;;;;;;;-0.22;93.22;101252.75;5050897;28;20190;-75
2021/01/10 04:03:58;;;;;;;29.33;19.93;;;;;;;-0.22;93.84;101253.56;5050633;28;20183;-75
2021/01/10 04:06:23;;;;;;;28.87;18.93;;;;;;;-0.24;93.96;101247.59;5050096;28;20195;-75
2021/01/10 04:08:48;;;;;;;28.80;18.80;;;;;;;-0.23;93.72;101254.59;5050638;28;20262;-75
2021/01/10 04:11:14;;;;;;;33.90;21.23;;;;;;;-0.22;93.28;101250.88;5050386;28;20237;-75
2021/01/10 04:13:41;;;;;;;34.30;21.60;;;;;;;-0.23;93.15;101251.91;5050448;28;20651;-75
2021/01/10 04:16:06;;;;;;;37.70;22.10;;;;;;;-0.20;93.29;101245.28;5049974;28;20179;-75
2021/01/10 04:18:32;;;;;;;43.03;23.10;;;;;;;-0.20;93.25;101246.09;5050216;28;20483;-75
2021/01/10 04:20:57;;;;;;;40.67;24.73;;;;;;;-0.17;92.84;101242.16;5050459;28;20183;-75
2021/01/10 04:23:23;;;;;;;47.63;24.30;;;;;;;-0.16;92.79;101241.91;5049722;28;20698;-75
2021/01/10 04:25:49;;;;;;;43.17;24.40;;;;;;;-0.15;93.03;101253.47;5050333;28;20808;-75
2021/01/10 04:28:15;;;;;;;36.47;22.70;;;;;;;-0.15;92.52;101246.25;5049631;28;20223;-75
2021/01/10 04:30:41;;;;;;;41.57;23.03;;;;;;;-0.14;92.79;101239.88;5050060;28;20493;-75
2021/01/10 04:33:06;;;;;;;41.83;23.57;;;;;;;-0.11;92.61;101241.28;5050195;28;20430;-75
2021/01/10 04:35:31;;;;;;;40.93;23.77;;;;;;;-0.08;92.92;101238.97;5050601;28;20284;-74
2021/01/10 04:37:57;;;;;;;40.10;23.27;;;;;;;-0.06;92.56;101241.44;5050426;28;20181;-75
2021/01/10 04:40:22;;;;;;;47.13;24.40;;;;;;;-0.06;92.78;101236.88;5050147;28;20183;-75
2021/01/10 04:42:48;;;;;;;42.03;24.07;;;;;;;-0.04;92.30;101240.16;5049937;28;20182;-75
2021/01/10 04:45:14;;;;;;;43.87;23.93;;;;;;;-0.02;92.18;101243.44;5050283;28;20198;-75
2021/01/10 04:47:41;;;;;;;42.83;24.57;;;;;;;0.02;92.69;101238.47;5049453;28;20413;-75
2021/01/10 04:50:07;;;;;;;44.97;24.60;;;;;;;0.01;92.20;101244.88;5050104;28;20179;-75
2021/01/10 04:52:36;;;;;;;43.77;22.97;;;;;;;0.04;91.98;101239.06;5048695;28;20763;-75
2021/01/10 04:55:03;;;;;;;39.17;24.07;;;;;;;0.06;91.94;101245.03;5048507;28;20816;-75
2021/01/10 04:57:32;;;;;;;38.87;22.97;;;;;;;0.05;92.39;101243.41;5049177;28;20428;-75
2021/01/10 04:59:58;;;;;;;41.47;23.07;;;;;;;0.05;92.62;101239.88;5049958;28;20429;-75
2021/01/10 05:02:25;;;;;;;41.77;24.77;;;;;;;0.10;92.77;101235.47;5049949;28;20421;-76
2021/01/10 05:04:51;;;;;;;37.57;23.40;;;;;;;0.17;92.66;101243.47;5049793;28;21043;-75
2021/01/10 05:07:16;;;;;;;42.10;23.87;;;;;;;0.23;92.49;101237.19;5049318;28;20421;-74
2021/01/10 05:09:42;;;;;;;36.90;23.50;;;;;;;0.26;92.13;101240.25;5049907;28;20175;-75
2021/01/10 05:12:08;;;;;;;36.23;22.83;;;;;;;0.31;92.19;101236.09;5049555;28;20262;-75
2021/01/10 05:14:33;;;;;;;38.70;22.33;;;;;;;0.31;92.33;101241.47;5048463;28;20967;-75
2021/01/10 05:17:02;;;;;;;38.73;23.30;;;;;;;0.31;92.10;101241.47;5049138;28;20230;-75
2021/01/10 05:19:31;;;;;;;46.57;24.20;;;;;;;0.33;91.64;101247.44;5049739;28;20182;-75
2021/01/10 05:21:57;;;;;;;43.83;23.90;;;;;;;0.33;91.87;101240.19;5049638;28;20461;-75
2021/01/10 05:24:22;;;;;;;42.43;24.37;;;;;;;0.38;91.44;101240.34;5049601;28;20932;-75
2021/01/10 05:26:48;;;;;;;41.83;25.13;;;;;;;0.46;91.94;101245.44;5048707;28;20437;-76
2021/01/10 05:29:14;;;;;;;43.70;24.37;;;;;;;0.45;92.11;101243.78;5049627;28;20642;-76
2021/01/10 05:31:44;;;;;;;35.37;22.03;;;;;;;0.55;91.91;101241.38;5049800;28;20222;-75
2021/01/10 05:34:13;;;;;;;35.40;20.93;;;;;;;0.52;91.37;101244.50;5051925;28;20198;-75
2021/01/10 05:36:38;;;;;;;36.77;21.77;;;;;;;0.48;91.62;101247.88;5052779;28;20513;-75
2021/01/10 05:39:29;;;;;;;31.90;21.80;;;;;;;0.40;91.36;101253.56;5052910;28;20505;-75
2021/01/10 05:41:58;;;;;;;33.43;20.87;;;;;;;0.37;91.57;101254.00;5053373;28;20257;-75
2021/01/10 05:44:25;;;;;;;38.67;23.93;;;;;;;0.32;91.45;101254.69;5051933;28;20759;-75
2021/01/10 05:47:04;;;;;;;36.20;22.73;;;;;;;0.35;91.69;101256.91;5052590;28;20445;-75
2021/01/10 05:49:30;;;;;;;36.37;21.63;;;;;;;0.31;91.32;101249.53;5053207;28;20421;-75
2021/01/10 05:52:05;;;;;;;38.57;21.33;;;;;;;0.24;91.79;101255.78;5053054;28;20422;-75
2021/01/10 05:54:35;;;;;;;36.13;22.17;;;;;;;0.18;91.97;101250.50;5053039;28;20460;-75
2021/01/10 05:57:11;;;;;;;50.63;25.43;;;;;;;0.12;92.76;101249.50;5052357;28;20508;-75
2021/01/10 05:59:38;;;;;;;46.23;22.73;;;;;;;0.10;92.46;101267.72;5053116;28;20409;-75
2021/01/10 06:02:06;;;;;;;40.80;21.20;;;;;;;0.08;92.47;101263.59;5052835;28;20912;-75
2021/01/10 06:04:32;;;;;;;44.03;23.97;;;;;;;0.07;92.86;101267.34;5052924;28;20417;-75
2021/01/10 06:06:58;;;;;;;43.13;23.83;;;;;;;0.04;92.88;101263.25;5052204;28;20446;-75
2021/01/10 06:09:24;;;;;;;42.67;23.10;;;;;;;0.07;92.84;101268.16;5052682;28;20428;-75
2021/01/10 06:11:50;;;;;;;53.67;25.17;;;;;;;0.11;92.84;101271.22;5052744;28;20424;-75
2021/01/10 06:14:20;;;;;;;45.33;23.13;;;;;;;0.15;92.60;101269.75;5052621;28;20551;-75
2021/01/10 06:16:52;;;;;;;40.03;24.40;;;;;;;0.15;92.43;101261.69;5051940;28;20254;-75
2021/01/10 06:19:18;;;;;;;50.43;24.57;;;;;;;0.15;92.59;101269.75;5052646;28;20424;-75
2021/01/10 06:21:47;;;;;;;52.53;25.37;;;;;;;0.17;92.60;101273.84;5052604;28;20418;-75
2021/01/10 06:24:17;;;;;;;47.37;23.70;;;;;;;0.17;92.52;101275.72;5052598;28;20182;-76
2021/01/10 06:26:47;;;;;;;44.63;23.77;;;;;;;0.15;92.22;101259.00;5052136;28;20834;-76
2021/01/10 06:29:13;;;;;;;43.20;21.83;;;;;;;0.19;92.56;101265.56;5051257;28;20410;-75
2021/01/10 06:31:44;;;;;;;43.77;25.10;;;;;;;0.18;92.50;101270.13;5052548;28;20925;-75
2021/01/10 06:34:10;;;;;;;48.07;24.67;;;;;;;0.18;92.27;101272.00;5052536;28;20453;-75
2021/01/10 06:36:38;;;;;;;42.60;23.83;;;;;;;0.17;92.14;101263.09;5052195;28;20910;-75
2021/01/10 06:39:14;;;;;;;40.57;22.30;;;;;;;0.17;91.88;101264.97;5052644;28;20190;-76
2021/01/10 06:42:01;;;;;;;41.27;23.87;;;;;;;0.17;91.97;101270.34;5052622;28;20769;-75
2021/01/10 06:44:28;;;;;;;44.13;28.13;;;;;;;0.16;92.46;101261.47;5050634;28;20788;-75
2021/01/10 06:46:54;;;;;;;50.43;27.60;;;;;;;0.19;92.43;101270.94;5051261;28;20780;-75
2021/01/10 06:49:21;;;;;;;52.43;27.80;;;;;;;0.19;92.29;101270.94;5052503;28;20426;-75
2021/01/10 06:51:50;;;;;;;43.47;25.17;;;;;;;0.19;92.28;101270.94;5052447;28;20418;-76
2021/01/10 06:54:15;;;;;;;45.57;24.53;;;;;;;0.14;92.29;101266.22;5051841;28;20556;-76
2021/01/10 06:56:52;;;;;;;41.17;23.60;;;;;;;0.12;92.63;101264.81;5051426;28;20517;-75
2021/01/10 06:59:19;;;;;;;40.67;22.50;;;;;;;0.11;92.26;101263.16;5052207;28;20186;-75
2021/01/10 07:01:47;;;;;;;42.87;23.87;;;;;;;0.13;92.37;101267.25;5051921;28;20441;-75
2021/01/10 07:04:13;;;;;;;43.80;22.77;;;;;;;0.17;92.25;101268.47;5051863;28;20413;-76
2021/01/10 07:06:49;;;;;;;43.67;24.17;;;;;;;0.20;92.29;101267.22;5050033;28;20877;-76
2021/01/10 07:09:15;;;;;;;47.40;26.87;;;;;;;0.24;91.75;101271.09;5051668;28;20186;-75
2021/01/10 07:11:42;;;;;;;46.50;24.70;;;;;;;0.25;91.90;101267.34;5051653;28;20424;-75
2021/01/10 07:14:13;;;;;;;44.10;23.83;;;;;;;0.23;92.20;101272.97;5051569;28;20465;-75
2021/01/10 07:16:46;;;;;;;41.13;23.67;;;;;;;0.25;92.13;101275.41;5051376;28;20601;-74
2021/01/10 07:19:15;;;;;;;44.37;24.33;;;;;;;0.25;92.31;101275.41;5051309;28;20421;-75
2021/01/10 07:21:43;;;;;;;39.17;23.47;;;;;;;0.23;91.59;101272.97;5051326;28;20949;-75
2021/01/10 07:24:20;;;;;;;38.90;23.43;;;;;;;0.23;91.93;101277.50;5051408;28;20414;-76
2021/01/10 07:26:48;;;;;;;41.77;22.73;;;;;;;0.26;92.27;101269.81;5050623;28;20784;-75
2021/01/10 07:29:33;;;;;;;37.33;20.83;;;;;;;0.24;91.85;101276.47;5051299;28;20813;-75
2021/01/10 07:32:03;;;;;;;40.10;22.40;;;;;;;0.20;92.21;101278.78;5051513;28;20417;-75
2021/01/10 07:34:30;;;;;;;42.60;25.93;;;;;;;0.23;91.96;101267.59;5051357;28;20795;-75
2021/01/10 07:36:58;;;;;;;34.87;20.33;;;;;;;0.25;91.80;101278.09;5050943;28;20425;-74
2021/01/10 07:39:26;;;;;;;42.13;21.80;;;;;;;0.23;91.58;101278.31;5051235;28;20441;-74
2021/01/10 07:41:53;;;;;;;30.90;16.47;;;;;;;0.27;91.03;101270.63;5051013;28;20461;-76
2021/01/10 07:44:18;;;;;;;39.30;19.73;;;;;;;0.26;90.40;101277.06;5050938;28;20417;-76
2021/01/10 07:46:59;;;;;;;30.90;14.07;;;;;;;0.27;90.72;101281.38;5050312;28;20410;-76
2021/01/10 07:49:28;;;;;;;33.93;19.27;;;;;;;0.26;90.01;101277.06;5050994;28;20190;-76
2021/01/10 07:51:53;;;;;;;32.70;20.03;;;;;;;0.29;89.65;101282.00;5050758;28;20414;-75
2021/01/10 07:54:54;;;;;;;38.00;22.87;;;;;;;0.33;90.13;101279.69;5050726;28;20477;-75
2021/01/10 07:57:32;;;;;;;38.13;21.53;;;;;;;0.39;90.48;101282.28;5049356;28;20643;-76
2021/01/10 08:00:23;;;;;;;36.70;21.20;;;;;;;0.44;90.26;101276.28;5050868;28;20508;-75
2021/01/10 08:02:56;;;;;;;35.73;20.53;;;;;;;0.46;90.75;101280.38;5049139;28;20430;-76
2021/01/10 08:05:21;;;;;;;39.67;22.50;;;;;;;0.51;90.06;101280.50;5049445;28;20845;-76
2021/01/10 08:07:58;;;;;;;39.73;22.30;;;;;;;0.56;90.36;101280.66;5049895;28;20418;-76
2021/01/10 08:10:26;;;;;;;39.77;24.03;;;;;;;0.50;90.51;101281.56;5050528;28;20181;-76
2021/01/10 08:12:51;;;;;;;40.47;24.00;;;;;;;0.55;90.43;101273.63;5050431;28;20421;-76
2021/01/10 08:15:17;;;;;;;38.13;21.90;;;;;;;0.65;90.03;101281.19;5050224;28;20504;-76
2021/01/10 08:17:43;;;;;;;36.97;21.77;;;;;;;0.70;90.27;101285.88;5049971;28;20210;-76
2021/01/10 08:20:10;;;;;;;41.60;21.80;;;;;;;0.65;89.60;101291.13;5050405;28;20558;-76
2021/01/10 08:22:40;;;;;;;35.73;21.47;;;;;;;0.62;89.59;101295.09;5050495;28;20414;-76
2021/01/10 08:25:17;;;;;;;32.50;19.90;;;;;;;0.61;90.01;101306.06;5050198;28;20433;-75
2021/01/10 08:27:43;;;;;;;34.53;21.60;;;;;;;0.59;90.06;101301.72;5049917;28;20785;-75
2021/01/10 08:30:09;;;;;;;38.43;21.43;;;;;;;0.57;90.01;101303.78;5050095;28;20414;-75
2021/01/10 08:32:36;;;;;;;36.00;20.90;;;;;;;0.58;90.00;101308.16;5050328;28;20179;-76
2021/01/10 08:35:02;;;;;;;33.23;21.97;;;;;;;0.63;90.15;101309.34;5049936;28;20972;-76
2021/01/10 08:37:28;;;;;;;32.97;22.63;;;;;;;0.64;90.57;101308.28;5049462;28;20429;-76
2021/01/10 08:40:03;;;;;;;39.53;22.83;;;;;;;0.65;90.18;101309.94;5050209;28;20175;-75
2021/01/10 08:42:30;;;;;;;40.43;22.40;;;;;;;0.66;90.55;101311.56;5048552;28;20429;-76
2021/01/10 08:44:56;;;;;;;48.00;25.47;;;;;;;0.71;90.30;101300.97;5050260;28;20430;-76
2021/01/10 08:47:21;;;;;;;39.33;23.53;;;;;;;0.75;90.48;101304.88;5049394;28;20512;-76
2021/01/10 08:49:57;;;;;;;44.37;24.20;;;;;;;0.79;90.54;101314.94;5049991;28;20512;-76
2021/01/10 08:52:22;;;;;;;34.10;21.67;;;;;;;0.82;90.30;101313.66;5049918;28;20670;-76
2021/01/10 08:54:51;;;;;;;41.23;24.63;;;;;;;0.85;89.92;101311.34;5049828;28;20468;-76
2021/01/10 08:57:16;;;;;;;39.50;23.97;;;;;;;0.83;89.90;101305.34;5047709;28;20183;-75
2021/01/10 08:59:42;;;;;;;44.27;22.80;;;;;;;0.81;89.89;101318.22;5049942;28;20807;-75
2021/01/10 09:02:09;;;;;;;40.40;23.83;;;;;;;0.79;90.35;101304.19;5049187;28;20558;-76
2021/01/10 09:04:42;;;;;;;44.30;23.87;;;;;;;0.72;90.70;101306.09;5048379;28;20837;-76
2021/01/10 09:07:10;;;;;;;43.10;26.07;;;;;;;0.85;90.38;101313.19;5049175;28;20417;-74
2021/01/10 09:10:03;;;;;;;43.57;24.07;;;;;;;0.97;90.05;101311.41;5052160;28;20540;-75
2021/01/10 09:12:38;;;;;;;42.07;24.57;;;;;;;1.01;90.07;101319.84;5050581;28;20414;-73
2021/01/10 09:15:14;;;;;;;47.40;25.13;;;;;;;0.93;90.15;101310.22;5052489;28;20701;-73
2021/01/10 09:17:47;;;;;;;41.40;24.93;;;;;;;1.01;90.03;101312.59;5048967;28;20437;-73
2021/01/10 09:20:18;;;;;;;40.33;24.97;;;;;;;1.07;89.62;101322.44;5050244;28;20429;-74
2021/01/10 09:22:43;;;;;;;37.00;24.40;;;;;;;1.11;89.34;101317.44;5052390;28;20444;-73
2021/01/10 09:25:14;;;;;;;39.47;22.50;;;;;;;1.21;89.42;101316.91;5052239;28;20426;-74
2021/01/10 09:28:10;;;;;;;34.90;21.77;;;;;;;1.21;88.85;101322.28;5051694;28;20191;-74
2021/01/10 09:30:38;;;;;;;37.30;22.83;;;;;;;1.24;88.73;101308.38;5050854;28;20849;-76
2021/01/10 09:33:05;;;;;;;36.33;21.50;;;;;;;1.25;88.46;101313.50;5052332;28;20449;-76
2021/01/10 09:35:44;;;;;;;37.27;21.60;;;;;;;1.21;88.34;101317.72;5052182;28;20960;-76
2021/01/10 09:38:15;;;;;;;32.97;20.30;;;;;;;1.11;87.80;101312.06;5049543;28;20421;-76
2021/01/10 09:41:04;;;;;;;42.37;22.17;;;;;;;1.09;87.67;101319.53;5051987;28;20484;-76
2021/01/10 09:43:33;;;;;;;32.53;20.73;;;;;;;1.16;87.79;101314.91;5049758;28;20422;-75
2021/01/10 09:45:59;;;;;;;29.30;20.97;;;;;;;1.16;87.74;101312.22;5052176;28;20444;-76
2021/01/10 09:48:25;;;;;;;19.73;12.93;;;;;;;1.15;87.31;101314.06;5051558;28;20897;-76
2021/01/10 09:50:51;;;;;;;31.13;20.40;;;;;;;1.14;87.43;101315.09;5052284;28;20326;-76
2021/01/10 09:53:26;;;;;;;24.77;16.30;;;;;;;1.08;86.88;101315.19;5050516;28;20524;-76
2021/01/10 09:55:51;;;;;;;15.63;11.73;;;;;;;1.00;87.00;101310.13;5049863;28;20586;-76
2021/01/10 09:58:16;;;;;;;22.10;16.50;;;;;;;0.95;87.28;101313.50;5051325;28;20516;-76
2021/01/10 10:00:57;;;;;;;36.87;21.60;;;;;;;0.92;87.43;101313.13;5051751;28;20262;-75
2021/01/10 10:03:24;;;;;;;24.47;14.00;;;;;;;0.88;87.41;101315.47;5051773;28;20270;-76
2021/01/10 10:05:57;;;;;;;26.23;17.23;;;;;;;0.86;87.40;101317.53;5051898;28;20426;-76
2021/01/10 10:08:22;;;;;;;31.30;20.57;;;;;;;0.90;87.95;101310.69;5051149;28;20410;-76
2021/01/10 10:10:47;;;;;;;28.33;18.50;;;;;;;0.98;87.93;101313.03;5051538;28;20972;-76
2021/01/10 10:13:12;;;;;;;31.60;20.10;;;;;;;1.03;88.10;101315.88;5050717;28;20183;-79
2021/01/10 10:15:43;;;;;;;24.77;19.70;;;;;;;1.06;86.84;101307.34;5049915;28;20206;-80
2021/01/10 10:18:16;;;;;;;26.73;18.23;;;;;;;1.10;87.38;101313.91;5048117;28;20183;-74
2021/01/10 10:20:42;;;;;;;26.87;18.90;;;;;;;1.15;86.84;101313.22;5049411;28;20458;-74
2021/01/10 10:23:15;;;;;;;25.53;17.03;;;;;;;1.20;86.27;101302.63;5049892;28;20807;-75
2021/01/10 10:25:45;;;;;;;25.20;16.93;;;;;;;1.24;85.64;101294.91;5051452;28;20175;-75
2021/01/10 10:28:11;;;;;;;22.57;17.77;;;;;;;1.31;85.61;101304.53;5048767;28;20980;-75
2021/01/10 10:30:37;;;;;;;25.30;15.17;;;;;;;1.36;85.25;101293.09;5048283;28;20520;-75
2021/01/10 10:33:03;;;;;;;11.17;7.13;;;;;;;1.35;84.96;101296.81;5051363;28;20179;-75
2021/01/10 10:35:29;;;;;;;25.93;19.13;;;;;;;1.36;85.24;101290.38;5051563;28;20866;-74
2021/01/10 10:37:54;;;;;;;28.93;18.97;;;;;;;1.45;85.63;101286.31;5051329;28;20601;-75
2021/01/10 10:40:20;;;;;;;22.47;18.53;;;;;;;1.52;85.73;101283.53;5050152;28;20198;-75
2021/01/10 10:42:46;;;;;;;13.93;8.70;;;;;;;1.57;85.25;101287.16;5051565;28;20533;-74
2021/01/10 10:45:12;;;;;;;7.10;6.23;;;;;;;1.57;84.88;101279.06;5051482;28;20262;-74
2021/01/10 10:47:38;;;;;;;16.67;12.37;;;;;;;1.57;84.65;101264.78;5051065;28;20521;-74
2021/01/10 10:50:05;;;;;;;27.77;18.13;;;;;;;1.59;84.58;101265.38;5051267;28;20175;-74
2021/01/10 10:52:30;;;;;;;26.33;20.10;;;;;;;1.66;84.62;101264.22;5051453;28;20195;-74
2021/01/10 10:54:56;;;;;;;23.23;17.17;;;;;;;1.70;84.12;101260.00;5051281;28;20493;-74
2021/01/10 10:57:21;;;;;;;15.10;12.07;;;;;;;1.68;83.74;101261.31;5051945;28;20926;-74
2021/01/10 10:59:46;;;;;;;21.13;17.07;;;;;;;1.69;83.90;101260.25;5052429;28;20258;-74
2021/01/10 11:02:12;;;;;;;22.80;16.53;;;;;;;1.73;84.02;101256.03;5052535;28;20217;-74
2021/01/10 11:04:38;;;;;;;21.13;15.50;;;;;;;1.72;83.06;101257.91;5052634;28;20195;-74
2021/01/10 11:07:05;;;;;;;21.27;15.90;;;;;;;1.81;84.13;101253.00;5052080;28;20589;-74
2021/01/10 11:09:31;;;;;;;20.27;15.50;;;;;;;1.79;82.54;101255.94;5052426;28;20414;-73
2021/01/10 11:11:56;;;;;;;9.17;8.13;;;;;;;1.87;83.16;101257.44;5050828;28;20979;-74
2021/01/10 11:14:22;;;;;;;16.30;11.03;;;;;;;1.86;82.93;101255.81;5052216;28;20230;-74
2021/01/10 11:16:49;;;;;;;21.67;15.90;;;;;;;1.76;82.73;101250.19;5051799;28;20202;-74
2021/01/10 11:19:14;;;;;;;21.30;16.40;;;;;;;1.71;82.76;101252.75;5052094;28;20167;-74